Time;durP1;ratioP1;P1;durP2;ratioP2;P2;SDS_P1;SDS_P2;PMS_P1;PMS_P2;Temp;Humidity;BMP_temperature;BMP_pressure;BME280_temperature;BME280_humidity;BME280_pressure;Samples;Min_cycle;Max_cycle;Signal;HPM_P1;HPM_P2
2022/01/21 00:01:39;;;;;;;6.63;2.50;;;3.30;99.90;;;;;;5086310;28;20646;-56
2022/01/21 00:04:07;;;;;;;11.17;2.23;;;3.30;99.90;;;;;;5084589;28;20977;-57
2022/01/21 00:06:34;;;;;;;10.27;2.50;;;3.30;99.90;;;;;;5082778;28;20260;-58
2022/01/21 00:09:02;;;;;;;5.87;2.27;;;3.40;99.90;;;;;;5082281;28;20219;-57
2022/01/21 00:11:30;;;;;;;13.00;2.30;;;3.20;99.90;;;;;;5078881;28;20256;-57
2022/01/21 00:13:58;;;;;;;8.00;2.27;;;3.40;99.90;;;;;;5080394;28;20892;-57
2022/01/21 00:16:27;;;;;;;9.73;2.43;;;3.40;99.90;;;;;;5078526;28;20203;-57
2022/01/21 00:19:06;;;;;;;9.10;2.33;;;3.10;99.90;;;;;;5080196;28;20210;-56
2022/01/21 00:30:11;;;;;;;9.67;1.70;;;3.10;99.90;;;;;;5078780;28;20197;-57
2022/01/21 00:32:42;;;;;;;4.67;1.50;;;2.80;99.90;;;;;;5080311;28;20241;-57
2022/01/21 00:35:09;;;;;;;5.77;2.10;;;2.50;99.90;;;;;;5079158;28;20213;-57
2022/01/21 00:37:36;;;;;;;5.47;1.87;;;2.50;99.90;;;;;;5080999;28;20297;-57
2022/01/21 00:40:05;;;;;;;5.70;2.40;;;2.50;99.90;;;;;;5078166;28;20206;-58
2022/01/21 00:45:00;;;;;;;9.20;2.10;;;2.80;99.90;;;;;;5078979;28;20206;-58
2022/01/21 00:47:27;;;;;;;7.43;2.10;;;2.90;99.90;;;;;;5081808;28;20642;-56
2022/01/21 00:49:55;;;;;;;3.83;1.73;;;2.90;99.90;;;;;;5075495;28;20294;-57
2022/01/21 00:52:22;;;;;;;5.87;1.47;;;3.00;99.90;;;;;;5066295;28;20571;-59
2022/01/21 00:54:49;;;;;;;6.43;1.57;;;3.00;99.90;;;;;;5077943;28;20293;-56
2022/01/21 00:57:16;;;;;;;7.53;1.83;;;3.00;99.90;;;;;;5068633;28;20206;-58
2022/01/21 00:59:43;;;;;;;6.27;1.40;;;3.10;99.90;;;;;;5080099;28;20233;-58
2022/01/21 01:02:09;;;;;;;9.53;2.33;;;3.20;99.90;;;;;;5080084;28;20193;-57
2022/01/21 01:04:37;;;;;;;6.70;1.70;;;3.20;99.90;;;;;;5080444;28;20225;-56
2022/01/21 01:07:04;;;;;;;8.90;1.77;;;3.10;99.90;;;;;;5080376;28;20210;-58
2022/01/21 01:09:32;;;;;;;5.83;1.40;;;3.10;99.90;;;;;;5065578;28;20348;-59
2022/01/21 01:20:03;;;;;;;6.57;1.57;;;3.30;99.90;;;;;;5077294;28;20242;-56
2022/01/21 01:27:56;;;;;;;8.83;1.73;;;3.30;99.90;;;;;;5082005;28;20209;-57
2022/01/21 01:30:25;;;;;;;7.67;1.77;;;3.50;99.90;;;;;;5081377;28;20252;-60
2022/01/21 01:32:56;;;;;;;5.63;1.67;;;3.50;99.90;;;;;;5064921;28;20228;-58
2022/01/21 01:35:25;;;;;;;11.20;1.50;;;3.40;99.90;;;;;;5079208;28;20226;-59
2022/01/21 01:41:10;;;;;;;5.67;1.20;;;3.40;99.90;;;;;;5079061;28;20210;-58
2022/01/21 01:51:32;;;;;;;4.47;1.40;;;3.40;99.90;;;;;;5081870;28;20519;-58
2022/01/21 01:54:10;;;;;;;6.53;1.60;;;3.50;99.90;;;;;;5082517;28;20322;-58
2022/01/21 01:56:42;;;;;;;10.87;1.67;;;3.30;99.90;;;;;;5082923;28;20205;-57
2022/01/21 01:59:09;;;;;;;5.10;1.30;;;3.50;99.90;;;;;;5076946;28;20209;-57
2022/01/21 02:01:36;;;;;;;3.63;1.17;;;3.50;99.90;;;;;;5083908;28;20199;-57
2022/01/21 02:04:03;;;;;;;8.67;1.60;;;3.60;99.90;;;;;;5081166;28;20203;-57
2022/01/21 02:06:31;;;;;;;4.43;1.10;;;3.50;99.90;;;;;;5082594;28;20228;-57
2022/01/21 02:08:59;;;;;;;3.80;1.20;;;3.60;99.90;;;;;;5084319;28;20257;-56
2022/01/21 02:11:27;;;;;;;2.50;1.13;;;3.70;99.90;;;;;;5085448;28;20217;-57
2022/01/21 02:14:00;;;;;;;4.97;1.40;;;3.80;99.90;;;;;;5083495;28;20299;-57
2022/01/21 02:21:45;;;;;;;5.67;1.60;;;3.70;99.90;;;;;;5088166;28;20296;-57
2022/01/21 02:24:15;;;;;;;6.00;1.47;;;3.70;99.90;;;;;;5088343;28;20279;-56
2022/01/21 02:26:43;;;;;;;7.77;1.97;;;3.70;99.90;;;;;;5086419;28;20214;-56
2022/01/21 02:29:12;;;;;;;5.57;1.87;;;3.80;99.90;;;;;;5086551;28;20226;-58
2022/01/21 02:31:40;;;;;;;8.37;1.90;;;3.80;99.90;;;;;;5087887;28;20203;-57
2022/01/21 02:34:08;;;;;;;6.27;2.13;;;3.80;99.90;;;;;;5068782;28;20208;-57
2022/01/21 02:36:36;;;;;;;10.17;2.37;;;3.70;99.90;;;;;;5086176;28;20276;-55
2022/01/21 02:39:04;;;;;;;8.87;1.70;;;3.80;99.90;;;;;;5088493;28;20204;-55
2022/01/21 02:41:31;;;;;;;10.20;2.10;;;3.70;99.90;;;;;;5088021;28;20241;-56
2022/01/21 02:43:58;;;;;;;11.33;2.57;;;3.80;99.90;;;;;;5084616;28;20305;-54
2022/01/21 02:46:26;;;;;;;5.43;2.13;;;3.90;99.90;;;;;;5084727;28;20958;-56
2022/01/21 02:48:53;;;;;;;9.70;2.00;;;3.90;99.90;;;;;;5085308;28;20235;-56
2022/01/21 02:51:20;;;;;;;11.27;2.07;;;3.90;99.90;;;;;;5086343;28;20198;-58
2022/01/21 02:56:18;;;;;;;5.87;1.50;;;3.80;99.90;;;;;;5086136;28;20285;-56
2022/01/21 02:58:46;;;;;;;9.80;2.03;;;3.80;99.90;;;;;;5085475;28;20200;-55
2022/01/21 03:01:15;;;;;;;6.13;1.47;;;3.80;99.90;;;;;;5080629;28;20236;-55
2022/01/21 03:03:43;;;;;;;5.93;1.83;;;3.80;99.90;;;;;;5087049;28;21188;-55
2022/01/21 03:06:15;;;;;;;6.33;1.40;;;3.70;99.90;;;;;;5085020;28;20309;-58
2022/01/21 03:08:46;;;;;;;5.03;1.30;;;3.70;99.90;;;;;;5082439;28;20325;-57
2022/01/21 03:11:13;;;;;;;7.57;1.83;;;3.70;99.90;;;;;;5086679;28;20327;-58
2022/01/21 03:13:41;;;;;;;4.10;1.90;;;3.70;99.90;;;;;;5085949;28;20214;-57
2022/01/21 03:16:09;;;;;;;6.10;1.80;;;3.80;99.90;;;;;;5085193;28;20260;-57
2022/01/21 03:18:36;;;;;;;8.37;2.07;;;3.80;99.90;;;;;;5086382;28;20199;-57
2022/01/21 03:21:03;;;;;;;6.53;2.00;;;3.80;99.90;;;;;;5064362;28;20237;-57
2022/01/21 03:23:30;;;;;;;11.67;2.70;;;3.70;99.90;;;;;;5085403;28;20252;-57
2022/01/21 03:25:57;;;;;;;5.97;2.43;;;3.70;99.90;;;;;;5086041;28;20265;-58
2022/01/21 03:28:24;;;;;;;4.90;2.13;;;3.50;99.90;;;;;;5085325;28;20234;-58
2022/01/21 03:30:55;;;;;;;8.53;2.03;;;3.60;99.90;;;;;;5084233;28;20196;-57
2022/01/21 03:33:23;;;;;;;5.13;2.07;;;3.70;99.90;;;;;;5084644;28;20279;-57
2022/01/21 03:35:53;;;;;;;3.83;1.27;;;3.70;99.90;;;;;;5083046;28;20208;-55
2022/01/21 03:38:25;;;;;;;6.73;1.43;;;3.70;99.90;;;;;;5086847;28;20207;-58
2022/01/21 03:40:53;;;;;;;3.00;1.20;;;3.70;99.90;;;;;;5085947;28;20212;-58
2022/01/21 03:43:22;;;;;;;5.87;1.60;;;3.70;99.90;;;;;;5083959;28;20223;-57
2022/01/21 03:45:50;;;;;;;6.07;1.60;;;3.70;99.90;;;;;;5082997;28;20291;-57
2022/01/21 03:48:17;;;;;;;5.80;1.20;;;3.70;99.90;;;;;;5085002;28;20295;-57
2022/01/21 03:50:45;;;;;;;4.93;1.17;;;3.70;99.90;;;;;;5063967;28;20230;-57
2022/01/21 03:53:12;;;;;;;10.53;1.93;;;3.60;99.90;;;;;;5085208;28;20204;-57
2022/01/21 03:55:39;;;;;;;6.10;1.47;;;3.60;99.90;;;;;;5084716;28;20272;-58
2022/01/21 03:58:08;;;;;;;7.23;1.50;;;3.60;99.90;;;;;;5085856;28;20202;-58
2022/01/21 04:00:46;;;;;;;7.83;1.77;;;3.70;99.90;;;;;;5085407;28;20254;-58
2022/01/21 04:03:13;;;;;;;8.70;0.97;;;3.70;99.90;;;;;;5086564;28;20198;-57
2022/01/21 04:05:40;;;;;;;7.53;1.60;;;3.60;99.90;;;;;;5083472;28;20345;-58
2022/01/21 04:08:09;;;;;;;5.33;1.43;;;3.70;99.90;;;;;;5064927;28;20238;-58
2022/01/21 04:10:39;;;;;;;4.23;0.97;;;3.80;99.90;;;;;;5086837;28;20272;-59
2022/01/21 04:13:11;;;;;;;3.63;1.03;;;3.80;99.90;;;;;;5086765;28;20237;-58
2022/01/21 04:15:38;;;;;;;6.87;1.00;;;3.70;99.90;;;;;;5064678;28;20190;-58
2022/01/21 04:18:05;;;;;;;6.30;1.50;;;3.80;99.90;;;;;;5065985;28;20191;-55
2022/01/21 04:20:32;;;;;;;6.90;0.90;;;3.70;99.90;;;;;;5082970;28;20853;-58
2022/01/21 04:22:59;;;;;;;3.50;0.97;;;3.70;99.90;;;;;;5086128;28;20687;-55
2022/01/21 04:25:25;;;;;;;2.93;0.90;;;3.80;99.90;;;;;;5082259;28;20583;-55
2022/01/21 04:27:52;;;;;;;5.17;1.27;;;3.70;99.90;;;;;;5084990;28;20216;-58
2022/01/21 04:30:19;;;;;;;5.67;1.17;;;3.70;99.90;;;;;;5085885;28;20198;-56
2022/01/21 04:32:46;;;;;;;5.00;1.17;;;3.60;99.90;;;;;;5067262;28;20264;-57
2022/01/21 04:35:13;;;;;;;2.70;1.00;;;3.60;99.90;;;;;;5081172;28;20660;-54
2022/01/21 04:37:47;;;;;;;3.63;1.17;;;3.60;99.90;;;;;;5083934;28;20208;-58
2022/01/21 04:40:16;;;;;;;5.70;1.37;;;3.60;99.90;;;;;;5084329;28;20259;-56
2022/01/21 04:48:15;;;;;;;8.37;1.73;;;3.70;99.90;;;;;;5080384;28;20302;-58
2022/01/21 04:50:54;;;;;;;6.50;1.03;;;3.60;99.90;;;;;;5069764;28;20203;-58
2022/01/21 04:53:22;;;;;;;3.40;1.10;;;3.60;99.90;;;;;;5071577;28;20984;-57
2022/01/21 04:55:50;;;;;;;7.27;1.40;;;3.60;99.90;;;;;;5069447;28;20335;-55
2022/01/21 04:58:17;;;;;;;2.20;0.93;;;3.60;99.90;;;;;;5067887;28;20349;-57
2022/01/21 05:00:44;;;;;;;4.83;1.40;;;3.50;99.90;;;;;;5068536;28;20564;-56
2022/01/21 05:03:12;;;;;;;5.63;1.10;;;3.50;99.90;;;;;;5071905;28;20198;-57
2022/01/21 05:05:40;;;;;;;5.70;1.23;;;3.50;99.90;;;;;;5067695;28;20294;-58
2022/01/21 05:08:10;;;;;;;7.83;1.63;;;3.50;99.90;;;;;;5072247;28;20220;-57
2022/01/21 05:10:38;;;;;;;5.73;1.30;;;3.60;99.90;;;;;;5071331;28;20310;-57
2022/01/21 05:13:05;;;;;;;8.40;1.70;;;3.60;99.90;;;;;;5057439;28;20236;-57
2022/01/21 05:18:11;;;;;;;6.33;1.73;;;3.50;99.90;;;;;;5093591;28;20260;-57
2022/01/21 05:20:38;;;;;;;3.83;2.00;;;3.50;99.90;;;;;;5086789;28;20247;-57
2022/01/21 05:23:04;;;;;;;4.80;1.80;;;3.50;99.90;;;;;;5085258;28;20234;-58
2022/01/21 05:25:31;;;;;;;3.80;1.43;;;3.50;99.90;;;;;;5085633;28;20236;-58
2022/01/21 05:27:59;;;;;;;8.80;1.43;;;3.60;99.90;;;;;;5088797;28;20248;-55
2022/01/21 05:30:27;;;;;;;2.90;0.93;;;3.50;99.90;;;;;;5058474;28;20253;-55
2022/01/21 05:32:54;;;;;;;5.60;1.43;;;3.60;99.90;;;;;;5089996;28;20201;-56
2022/01/21 05:35:21;;;;;;;1.67;1.13;;;3.50;99.90;;;;;;5086105;28;20312;-55
2022/01/21 05:37:48;;;;;;;4.60;1.10;;;3.60;99.90;;;;;;5087464;28;20234;-58
2022/01/21 05:40:16;;;;;;;2.47;1.00;;;3.60;99.90;;;;;;5088427;28;20286;-56
2022/01/21 05:42:43;;;;;;;4.77;1.10;;;3.60;99.90;;;;;;5087910;28;20256;-56
2022/01/21 05:47:56;;;;;;;5.00;0.97;;;3.70;99.90;;;;;;5091132;28;20238;-57
2022/01/21 05:50:23;;;;;;;5.77;0.90;;;3.60;99.90;;;;;;5078377;28;20600;-57
2022/01/21 05:52:50;;;;;;;3.67;0.90;;;3.50;99.90;;;;;;5078238;28;20205;-58
2022/01/21 05:55:17;;;;;;;5.90;1.27;;;3.50;99.90;;;;;;5079896;28;21902;-57
2022/01/21 05:57:44;;;;;;;6.93;1.27;;;3.50;99.90;;;;;;5082368;28;20202;-57
2022/01/21 06:00:12;;;;;;;6.23;1.20;;;3.50;99.90;;;;;;5080871;28;20290;-56
2022/01/21 06:02:39;;;;;;;7.87;1.23;;;3.50;99.90;;;;;;5081382;28;20863;-56
2022/01/21 06:05:07;;;;;;;3.33;0.90;;;3.40;99.90;;;;;;5078215;28;20835;-56
2022/01/21 06:07:34;;;;;;;6.27;1.23;;;3.30;99.90;;;;;;5083000;28;20369;-57
2022/01/21 06:10:01;;;;;;;3.30;1.10;;;2.90;99.90;;;;;;5083138;28;20215;-58
2022/01/21 06:12:28;;;;;;;5.67;1.30;;;3.10;99.90;;;;;;5082967;28;20281;-57
2022/01/21 06:14:55;;;;;;;4.30;1.17;;;2.90;99.90;;;;;;5079738;28;20201;-55
2022/01/21 06:17:22;;;;;;;5.23;1.20;;;3.00;99.90;;;;;;5080692;28;21238;-56
2022/01/21 06:22:34;;;;;;;8.40;1.57;;;3.40;99.90;;;;;;5082407;28;20643;-59
2022/01/21 06:25:00;;;;;;;6.00;1.33;;;3.50;99.90;;;;;;5080051;28;20797;-57
2022/01/21 06:27:28;;;;;;;4.70;1.27;;;3.60;99.90;;;;;;5083046;28;20301;-57
2022/01/21 06:29:55;;;;;;;3.57;1.20;;;3.50;99.90;;;;;;5083791;28;20341;-58
2022/01/21 06:32:22;;;;;;;5.60;1.47;;;3.30;99.90;;;;;;5082594;28;20245;-56
2022/01/21 06:34:49;;;;;;;3.83;1.50;;;3.40;99.90;;;;;;5078722;28;20203;-55
2022/01/21 06:37:16;;;;;;;4.83;0.93;;;3.50;99.90;;;;;;5084527;28;20256;-56
2022/01/21 06:39:43;;;;;;;6.77;1.60;;;3.60;99.90;;;;;;5084307;28;20243;-56
2022/01/21 06:42:10;;;;;;;4.70;1.50;;;3.50;99.90;;;;;;5084727;28;20216;-56
2022/01/21 06:44:37;;;;;;;6.90;1.30;;;3.40;99.90;;;;;;5083566;28;20296;-56
2022/01/21 06:47:04;;;;;;;5.17;1.33;;;3.40;99.90;;;;;;5083534;28;20210;-57
2022/01/21 06:49:31;;;;;;;6.30;1.10;;;3.20;99.90;;;;;;5081256;28;20263;-58
2022/01/21 06:51:58;;;;;;;7.43;1.90;;;2.80;99.90;;;;;;5076594;28;20294;-56
2022/01/21 06:54:24;;;;;;;3.27;1.70;;;2.60;99.90;;;;;;5083057;28;20222;-57
2022/01/21 06:56:51;;;;;;;6.53;1.63;;;2.50;99.90;;;;;;5079926;28;20698;-57
2022/01/21 06:59:18;;;;;;;5.53;1.90;;;2.30;99.90;;;;;;5078065;28;20231;-56
2022/01/21 07:01:46;;;;;;;4.13;1.57;;;2.20;99.90;;;;;;5073620;28;20271;-57
2022/01/21 07:04:13;;;;;;;8.53;1.63;;;2.20;99.90;;;;;;5079235;28;20580;-58
2022/01/21 07:06:40;;;;;;;6.53;1.70;;;2.20;99.90;;;;;;5072376;28;20726;-57
2022/01/21 07:09:07;;;;;;;5.13;1.90;;;2.30;99.90;;;;;;5061619;28;20898;-57
2022/01/21 07:11:34;;;;;;;5.10;1.53;;;2.10;99.90;;;;;;5075123;28;20246;-58
2022/01/21 07:14:00;;;;;;;7.00;2.07;;;2.10;99.90;;;;;;5077893;28;20207;-56
2022/01/21 07:16:27;;;;;;;6.47;1.80;;;2.20;99.90;;;;;;5079206;28;20650;-58
2022/01/21 07:18:54;;;;;;;6.87;2.20;;;2.30;99.90;;;;;;5071290;28;20659;-58
2022/01/21 07:21:21;;;;;;;8.90;1.80;;;2.40;99.90;;;;;;5085957;28;20258;-57
2022/01/21 07:23:48;;;;;;;8.10;2.47;;;2.40;99.90;;;;;;5077913;28;20203;-58
2022/01/21 07:26:14;;;;;;;10.10;2.67;;;2.40;99.90;;;;;;5074188;28;20241;-58
2022/01/21 07:28:41;;;;;;;8.90;2.40;;;2.50;99.90;;;;;;5078967;28;20399;-57
2022/01/21 07:31:08;;;;;;;6.70;2.17;;;2.60;99.90;;;;;;5075827;28;21029;-55
2022/01/21 07:33:37;;;;;;;6.93;2.47;;;2.60;99.90;;;;;;5077464;28;20244;-54
2022/01/21 07:36:05;;;;;;;10.33;2.50;;;2.70;99.90;;;;;;5073132;28;20767;-55
2022/01/21 07:38:32;;;;;;;7.00;2.03;;;2.50;99.90;;;;;;5082588;28;21141;-56
2022/01/21 07:40:59;;;;;;;8.60;2.37;;;2.40;99.90;;;;;;5077982;28;20259;-56
2022/01/21 07:43:26;;;;;;;7.27;2.37;;;2.40;99.90;;;;;;5083641;28;20200;-55
2022/01/21 07:45:53;;;;;;;5.60;1.83;;;2.40;99.90;;;;;;5082487;28;20232;-57
2022/01/21 07:48:20;;;;;;;7.83;2.57;;;2.30;99.90;;;;;;5080557;28;20362;-56
2022/01/21 07:50:46;;;;;;;6.47;2.00;;;2.20;99.90;;;;;;5076902;28;20214;-56
2022/01/21 07:53:13;;;;;;;9.97;3.20;;;2.20;99.90;;;;;;5084286;28;20241;-58
2022/01/21 07:55:40;;;;;;;5.83;2.50;;;2.20;99.90;;;;;;5079629;28;20225;-58
2022/01/21 07:58:07;;;;;;;8.23;2.87;;;2.30;99.90;;;;;;5084559;28;20286;-57
2022/01/21 08:00:34;;;;;;;6.90;2.50;;;2.30;99.90;;;;;;5084488;28;20274;-57
2022/01/21 08:03:01;;;;;;;7.30;2.83;;;2.30;99.90;;;;;;5083286;28;20202;-56
2022/01/21 08:05:34;;;;;;;8.27;2.73;;;2.60;99.90;;;;;;5064276;28;20203;-57
2022/01/21 08:08:02;;;;;;;7.03;2.90;;;2.60;99.90;;;;;;5080630;28;20218;-56
2022/01/21 08:10:31;;;;;;;6.53;2.57;;;2.60;99.90;;;;;;5080976;28;20272;-57
2022/01/21 08:13:00;;;;;;;6.00;2.30;;;2.80;99.90;;;;;;5087670;28;20203;-57
2022/01/21 08:15:28;;;;;;;9.47;3.10;;;2.70;99.90;;;;;;5082202;28;20211;-58
2022/01/21 08:17:55;;;;;;;6.43;2.47;;;2.80;99.90;;;;;;5083100;28;20658;-56
2022/01/21 08:20:22;;;;;;;5.37;2.67;;;2.70;99.90;;;;;;5063810;28;20235;-58
2022/01/21 08:22:48;;;;;;;7.23;2.50;;;2.80;99.90;;;;;;5085213;28;20250;-55
2022/01/21 08:25:16;;;;;;;6.27;2.53;;;2.90;99.90;;;;;;5070677;28;20777;-54
2022/01/21 08:27:42;;;;;;;9.60;2.57;;;3.00;99.90;;;;;;5059741;28;20227;-56
2022/01/21 08:30:10;;;;;;;9.07;3.60;;;3.00;99.90;;;;;;5083207;28;20542;-58
2022/01/21 08:32:37;;;;;;;2.43;1.90;;;2.90;99.90;;;;;;5058972;28;20227;-57
2022/01/21 08:35:07;;;;;;;4.43;2.30;;;3.00;99.90;;;;;;5079293;28;20303;-58
2022/01/21 08:40:21;;;;;;;5.30;2.60;;;3.30;99.90;;;;;;5084865;28;20198;-58
2022/01/21 08:42:49;;;;;;;5.73;2.20;;;3.10;99.90;;;;;;5082923;28;20213;-57
2022/01/21 08:45:17;;;;;;;7.90;2.33;;;3.10;99.90;;;;;;5084620;28;20909;-57
2022/01/21 08:47:44;;;;;;;5.53;2.40;;;3.20;99.90;;;;;;5084758;28;20238;-55
2022/01/21 08:50:16;;;;;;;3.53;1.90;;;3.30;99.90;;;;;;5081936;28;20279;-57
2022/01/21 08:52:43;;;;;;;5.53;1.93;;;3.30;99.90;;;;;;5065036;28;21896;-57
2022/01/21 08:55:18;;;;;;;5.83;2.30;;;3.40;99.90;;;;;;5081303;28;20227;-56
2022/01/21 08:57:47;;;;;;;3.60;2.03;;;3.70;99.90;;;;;;5083825;28;20199;-57
2022/01/21 09:00:19;;;;;;;5.53;2.43;;;3.80;99.90;;;;;;5060078;28;20200;-57
2022/01/21 09:02:47;;;;;;;8.13;2.37;;;3.60;99.90;;;;;;5081591;28;20741;-57
2022/01/21 09:05:13;;;;;;;4.00;2.00;;;3.70;99.90;;;;;;5074756;28;20202;-58
2022/01/21 09:07:41;;;;;;;8.17;2.30;;;3.60;99.90;;;;;;5081605;28;20336;-58
2022/01/21 09:10:09;;;;;;;4.60;2.10;;;3.70;99.90;;;;;;5083425;28;20309;-56
2022/01/21 09:12:37;;;;;;;4.37;2.20;;;3.80;99.90;;;;;;5077131;28;20291;-58
2022/01/21 09:15:05;;;;;;;4.40;2.03;;;3.80;99.90;;;;;;5078568;28;20836;-57
2022/01/21 09:17:35;;;;;;;6.70;1.87;;;4.20;99.90;;;;;;5082275;28;20207;-58
2022/01/21 09:20:03;;;;;;;6.90;2.07;;;4.20;99.90;;;;;;5079015;28;20272;-58
2022/01/21 09:22:30;;;;;;;11.20;1.93;;;4.50;99.90;;;;;;5078148;28;20571;-58
2022/01/21 09:24:57;;;;;;;4.57;2.20;;;4.30;99.90;;;;;;5079997;28;20614;-58
2022/01/21 09:27:24;;;;;;;6.93;1.53;;;4.30;99.90;;;;;;5080402;28;20790;-56
2022/01/21 09:29:51;;;;;;;5.10;1.57;;;4.40;99.90;;;;;;5081288;28;20328;-56
2022/01/21 09:32:18;;;;;;;4.50;1.60;;;4.50;99.90;;;;;;5078202;28;20202;-57
2022/01/21 09:34:45;;;;;;;5.90;1.73;;;4.90;99.90;;;;;;5075066;28;20807;-54
2022/01/21 09:37:11;;;;;;;3.50;1.73;;;5.50;99.90;;;;;;5075366;28;20199;-57
2022/01/21 09:39:38;;;;;;;4.33;1.93;;;6.00;1.00;;;;;;5081897;28;20227;-56
2022/01/21 09:42:06;;;;;;;4.87;1.80;;;6.40;1.00;;;;;;5081638;28;20257;-57
2022/01/21 09:44:35;;;;;;;5.23;1.80;;;6.60;1.00;;;;;;5081211;28;20509;-56
2022/01/21 09:47:04;;;;;;;7.33;1.87;;;7.10;99.90;;;;;;5081781;28;20249;-58
2022/01/21 09:49:31;;;;;;;10.23;1.73;;;7.70;1.00;;;;;;5081252;28;20257;-57
2022/01/21 09:52:00;;;;;;;3.87;1.70;;;7.80;1.00;;;;;;5082511;28;20547;-58
2022/01/21 09:54:31;;;;;;;8.00;1.53;;;7.80;99.90;;;;;;5081589;28;20202;-60
2022/01/21 09:56:59;;;;;;;9.80;1.57;;;7.60;1.00;;;;;;5076353;28;20207;-58
2022/01/21 09:59:29;;;;;;;6.80;2.10;;;7.80;99.90;;;;;;5082136;28;20218;-58
2022/01/21 10:02:01;;;;;;;6.37;1.90;;;8.00;1.00;;;;;;5084141;28;20226;-57
2022/01/21 10:04:31;;;;;;;4.47;1.57;;;7.80;1.00;;;;;;5076932;28;20318;-58
2022/01/21 10:06:58;;;;;;;7.73;1.70;;;7.30;1.00;;;;;;5080256;28;20227;-58
2022/01/21 10:09:25;;;;;;;7.87;2.10;;;7.10;1.00;;;;;;5083228;28;20281;-58
2022/01/21 10:11:55;;;;;;;5.43;2.10;;;7.40;1.00;;;;;;5080457;28;20201;-58
2022/01/21 10:14:24;;;;;;;6.30;1.97;;;7.90;1.00;;;;;;5082813;28;20211;-58
2022/01/21 10:16:53;;;;;;;10.53;2.40;;;8.10;1.00;;;;;;5076260;28;20228;-58
2022/01/21 10:19:27;;;;;;;10.27;2.20;;;7.40;29.20;;;;;;5081136;28;20666;-58
2022/01/21 10:22:09;;;;;;;4.73;1.63;;;7.10;1.00;;;;;;5080365;28;20199;-58
2022/01/21 10:24:50;;;;;;;7.10;1.60;;;6.80;1.00;;;;;;5078666;28;20242;-59
2022/01/21 10:27:39;;;;;;;8.20;1.47;;;6.80;1.00;;;;;;5081613;28;20206;-59
2022/01/21 10:30:22;;;;;;;4.97;2.30;;;6.50;1.00;;;;;;5071300;28;20208;-57
2022/01/21 10:32:49;;;;;;;8.53;2.10;;;6.40;1.00;;;;;;5086849;28;20195;-57
2022/01/21 10:35:32;;;;;;;4.60;1.80;;;6.40;1.00;;;;;;5084124;28;20199;-57
2022/01/21 10:38:23;;;;;;;8.53;1.67;;;6.60;1.00;;;;;;5083320;28;20196;-58
2022/01/21 10:40:51;;;;;;;6.50;2.40;;;6.90;1.00;;;;;;5087505;28;20251;-57
2022/01/21 10:43:20;;;;;;;7.00;1.80;;;7.00;1.00;;;;;;5081828;28;20337;-57
2022/01/21 10:45:57;;;;;;;8.67;2.03;;;7.00;1.00;;;;;;5068302;28;20231;-57
2022/01/21 10:48:32;;;;;;;8.47;1.80;;;7.00;1.00;;;;;;5062934;28;20344;-58
2022/01/21 10:51:20;;;;;;;7.23;1.60;;;6.90;1.00;;;;;;5083623;28;20248;-58
2022/01/21 10:53:47;;;;;;;7.63;2.20;;;7.10;1.00;;;;;;5087217;28;20293;-58
2022/01/21 10:56:16;;;;;;;5.83;1.90;;;7.20;1.00;;;;;;5084984;28;20233;-57
2022/01/21 10:58:51;;;;;;;15.67;2.00;;;7.50;1.00;;;;;;5085379;28;20209;-57
2022/01/21 11:01:22;;;;;;;8.23;1.77;;;7.50;1.00;;;;;;5083448;28;20319;-60
2022/01/21 11:03:56;;;;;;;6.07;1.60;;;7.60;1.00;;;;;;5065629;28;20213;-59
2022/01/21 11:06:26;;;;;;;5.03;1.70;;;7.70;1.00;;;;;;5084183;28;20250;-59
2022/01/21 11:09:35;;;;;;;6.43;1.77;;;8.00;1.00;;;;;;5085712;28;20244;-59
2022/01/21 11:12:08;;;;;;;9.70;2.33;;;7.80;1.00;;;;;;4979848;28;21137;-60
2022/01/21 11:14:35;;;;;;;8.60;2.20;;;7.70;1.00;;;;;;4979483;28;20248;-59
2022/01/21 11:17:14;;;;;;;7.53;1.83;;;7.30;1.00;;;;;;4980389;28;20222;-58
2022/01/21 11:20:15;;;;;;;7.83;2.30;;;7.30;1.00;;;;;;4979240;28;20738;-59
2022/01/21 11:22:57;;;;;;;7.90;2.07;;;7.30;1.00;;;;;;4969521;28;20212;-58
2022/01/21 11:25:43;;;;;;;4.67;1.70;;;7.20;1.00;;;;;;4977827;28;20217;-58
2022/01/21 11:28:21;;;;;;;8.33;2.20;;;7.20;62.40;;;;;;4978672;28;20225;-58
2022/01/21 11:30:51;;;;;;;5.07;1.40;;;7.40;1.00;;;;;;4979500;28;20198;-59
2022/01/21 11:33:18;;;;;;;9.37;2.00;;;7.40;1.00;;;;;;4981471;28;20214;-59
2022/01/21 11:35:48;;;;;;;8.60;2.20;;;7.50;1.00;;;;;;4979262;28;20210;-59
2022/01/21 11:38:18;;;;;;;8.17;2.87;;;7.60;1.00;;;;;;4978944;28;20247;-58
2022/01/21 11:40:47;;;;;;;12.70;2.47;;;7.50;1.00;;;;;;4978936;28;20203;-56
2022/01/21 11:43:15;;;;;;;7.03;2.20;;;7.50;1.00;;;;;;5033726;28;20230;-59
2022/01/21 11:48:50;;;;;;;10.20;2.40;;;7.50;1.00;;;;;;5087522;28;20238;-58
2022/01/21 11:51:38;;;;;;;9.93;4.03;;;7.40;1.00;;;;;;5091378;28;20196;-58
2022/01/21 11:54:11;;;;;;;13.30;2.60;;;7.50;1.00;;;;;;5069912;28;20674;-58
2022/01/21 11:56:46;;;;;;;8.97;2.47;;;7.40;1.00;;;;;;5074599;28;20200;-58
2022/01/21 11:59:33;;;;;;;10.10;2.73;;;7.50;1.00;;;;;;5091952;28;20215;-58
2022/01/21 12:02:15;;;;;;;9.93;2.03;;;7.60;1.00;;;;;;5064098;28;20206;-58
2022/01/21 12:04:45;;;;;;;13.70;1.87;;;7.60;1.00;;;;;;5095948;28;20299;-58
2022/01/21 12:07:34;;;;;;;7.47;1.80;;;7.40;1.00;;;;;;5092788;28;20302;-58
2022/01/21 12:10:13;;;;;;;7.60;2.90;;;7.50;1.00;;;;;;5090185;28;20241;-58
2022/01/21 12:15:30;;;;;;;12.50;2.60;;;7.40;1.00;;;;;;5089493;28;20210;-58
2022/01/21 12:18:06;;;;;;;6.43;1.90;;;7.50;1.00;;;;;;5088426;28;20201;-58
2022/01/21 12:20:35;;;;;;;7.57;2.80;;;7.50;1.00;;;;;;5089614;28;20198;-57
2022/01/21 12:23:12;;;;;;;5.47;1.73;;;7.60;1.00;;;;;;5092933;28;20696;-59
2022/01/21 12:26:10;;;;;;;9.50;1.90;;;7.70;1.00;;;;;;5088412;28;20195;-59
2022/01/21 12:29:07;;;;;;;6.37;1.37;;;8.10;1.00;;;;;;5073494;28;20214;-60
2022/01/21 12:31:50;;;;;;;7.73;2.47;;;8.40;1.00;;;;;;5088456;28;20208;-59
2022/01/21 12:34:17;;;;;;;7.60;1.77;;;8.10;1.00;;;;;;5087520;28;20204;-60
2022/01/21 12:36:51;;;;;;;6.67;1.40;;;8.10;1.00;;;;;;5089868;28;20854;-58
2022/01/21 12:39:42;;;;;;;6.27;1.80;;;8.00;1.00;;;;;;5085487;28;20209;-59
2022/01/21 12:42:21;;;;;;;6.73;2.47;;;8.00;1.00;;;;;;5086136;28;20687;-59
2022/01/21 12:44:52;;;;;;;7.13;1.60;;;8.00;19.30;;;;;;5063100;28;20215;-59
2022/01/21 12:47:45;;;;;;;7.83;1.60;;;8.00;36.00;;;;;;5090843;28;20206;-59
2022/01/21 12:50:30;;;;;;;8.33;2.00;;;8.00;33.90;;;;;;5074861;28;20238;-59
2022/01/21 12:58:20;;;;;;;12.13;3.10;;;8.30;44.10;;;;;;5077490;28;20260;-63
2022/01/21 13:00:47;;;;;;;8.23;1.87;;;8.40;1.00;;;;;;5079447;28;20199;-62
2022/01/21 13:03:20;;;;;;;5.63;1.50;;;8.40;1.00;;;;;;5074914;28;20290;-62
2022/01/21 13:06:18;;;;;;;9.87;1.60;;;8.30;1.00;;;;;;5062327;28;20203;-62
2022/01/21 13:09:09;;;;;;;5.40;1.27;;;8.40;1.00;;;;;;5062334;28;20666;-62
2022/01/21 13:11:40;;;;;;;11.07;1.83;;;8.20;1.00;;;;;;5079959;28;20283;-62
2022/01/21 13:17:14;;;;;;;6.67;1.40;;;8.40;1.00;;;;;;5074226;28;20800;-62
2022/01/21 13:19:51;;;;;;;8.17;1.50;;;8.30;1.00;;;;;;5078507;28;20216;-63
2022/01/21 13:22:25;;;;;;;8.07;1.60;;;8.30;1.00;;;;;;5058109;28;20642;-63
2022/01/21 13:25:10;;;;;;;4.13;1.43;;;8.30;1.00;;;;;;5075598;28;20623;-63
2022/01/21 13:27:50;;;;;;;5.80;1.43;;;8.30;1.00;;;;;;5079186;28;20642;-63
2022/01/21 13:30:20;;;;;;;7.80;1.80;;;8.20;1.00;;;;;;5075167;28;20308;-64
2022/01/21 13:32:47;;;;;;;6.07;1.10;;;8.00;1.00;;;;;;5078019;28;22996;-63
2022/01/21 13:35:17;;;;;;;6.40;1.60;;;7.90;1.00;;;;;;5078189;28;20206;-64
2022/01/21 13:38:14;;;;;;;7.27;2.10;;;7.80;1.00;;;;;;5075508;28;20652;-63
2022/01/21 13:40:46;;;;;;;5.33;1.40;;;7.70;1.00;;;;;;5056836;28;20634;-63
2022/01/21 13:43:17;;;;;;;4.70;1.57;;;7.70;1.00;;;;;;5075823;28;21083;-65
2022/01/21 13:46:00;;;;;;;6.20;1.33;;;7.70;54.00;;;;;;5076515;28;20205;-62
2022/01/21 13:48:29;;;;;;;5.90;1.83;;;7.60;61.20;;;;;;5082800;28;20213;-64
2022/01/21 13:50:58;;;;;;;7.63;1.13;;;7.70;24.60;;;;;;5078369;28;20779;-63
2022/01/21 13:56:15;;;;;;;8.27;1.80;;;7.70;1.00;;;;;;5075806;28;20266;-65
2022/01/21 13:58:45;;;;;;;9.00;1.90;;;7.70;1.00;;;;;;5073360;28;20589;-69
2022/01/21 14:01:15;;;;;;;5.73;1.60;;;7.80;6.90;;;;;;5073797;28;20216;-64
2022/01/21 14:03:44;;;;;;;4.80;2.00;;;7.80;1.00;;;;;;5056079;28;20310;-65
2022/01/21 14:06:17;;;;;;;7.57;1.80;;;7.90;1.00;;;;;;5079113;28;20294;-63
2022/01/21 14:08:46;;;;;;;4.20;1.47;;;7.80;1.00;;;;;;5081248;28;20309;-64
2022/01/21 14:11:23;;;;;;;8.10;2.70;;;7.80;1.00;;;;;;5082818;28;20286;-65
2022/01/21 14:14:00;;;;;;;9.10;3.97;;;7.80;1.00;;;;;;5080241;28;20302;-63
2022/01/21 14:16:32;;;;;;;13.23;5.47;;;7.90;1.00;;;;;;5067933;28;20528;-59
2022/01/21 14:19:00;;;;;;;17.80;7.73;;;7.90;1.00;;;;;;5061635;28;20244;-59
2022/01/21 14:21:29;;;;;;;19.43;7.13;;;8.00;1.00;;;;;;5079587;28;20750;-58
2022/01/21 14:24:14;;;;;;;17.57;6.73;;;8.00;1.00;;;;;;5080013;28;20235;-58
2022/01/21 14:26:48;;;;;;;24.13;11.50;;;8.00;1.00;;;;;;5082325;28;20293;-58
2022/01/21 14:29:38;;;;;;;16.63;7.87;;;8.10;1.00;;;;;;5080463;28;20318;-58
2022/01/21 14:32:20;;;;;;;20.03;9.70;;;8.10;1.00;;;;;;5079291;28;21061;-58
2022/01/21 14:34:48;;;;;;;33.90;19.50;;;8.00;1.00;;;;;;5076662;28;20212;-58